Terminal Aerodrome Forecast
Issued by NWS Portland, OR

Home | Current Version | Previous Version | Text Only | Print | Product List | Glossary On
Versions: 1 2 3 4 5 6 7 8 9 10 11 12 13 14 15 16 17 18 19 20 21 22 23 24 25 26 27 28 29 30 31 32 33 34 35 36 37 38
000
FTUS46 KPQR 272022 AAA
TAFSLE
TAF AMD
KSLE 272022Z 2720/2818 18012G22KT 6SM -SHRA BR BKN015 OVC035
     FM280100 18011KT P6SM -SHRA SCT015 BKN025 OVC035
     FM280400 17008KT P6SM -RA SCT012 OVC025
     FM281300 18012G20KT 5SM RA BR SCT012 OVC025=

USA.gov is the U.S. government's official web portal to all federal, state and local government web resources and services.